sensor_id;sensor_type;location;lat;lon;timestamp;pressure;altitude;pressure_sealevel;temperature;humidity
41106;BME280;74159;52.530;13.188;2024-01-30T00:02:12;102527.34;;;3.30;63.76
41106;BME280;74159;52.530;13.188;2024-01-30T00:04:37;102538.50;;;3.06;64.73
41106;BME280;74159;52.530;13.188;2024-01-30T00:07:03;102532.28;;;3.35;63.20
41106;BME280;74159;52.530;13.188;2024-01-30T00:09:28;102530.53;;;2.96;64.97
41106;BME280;74159;52.530;13.188;2024-01-30T00:11:54;102533.09;;;3.21;64.65
41106;BME280;74159;52.530;13.188;2024-01-30T00:14:19;102527.50;;;3.14;64.50
41106;BME280;74159;52.530;13.188;2024-01-30T00:16:45;102523.44;;;3.10;64.78
41106;BME280;74159;52.530;13.188;2024-01-30T00:19:10;102519.41;;;2.98;64.94
41106;BME280;74159;52.530;13.188;2024-01-30T00:21:36;102528.34;;;2.92;65.25
41106;BME280;74159;52.530;13.188;2024-01-30T00:24:01;102526.94;;;2.96;65.35
41106;BME280;74159;52.530;13.188;2024-01-30T00:26:26;102529.13;;;3.23;64.50
41106;BME280;74159;52.530;13.188;2024-01-30T00:28:52;102524.66;;;3.08;64.38
41106;BME280;74159;52.530;13.188;2024-01-30T00:31:17;102521.34;;;3.12;63.95
41106;BME280;74159;52.530;13.188;2024-01-30T00:33:42;102530.72;;;2.95;64.02
41106;BME280;74159;52.530;13.188;2024-01-30T00:36:09;102527.72;;;2.82;65.32
41106;BME280;74159;52.530;13.188;2024-01-30T00:38:35;102514.31;;;2.95;65.18
41106;BME280;74159;52.530;13.188;2024-01-30T00:41:01;102512.38;;;3.04;64.49
41106;BME280;74159;52.530;13.188;2024-01-30T00:43:27;102513.34;;;2.88;65.14
41106;BME280;74159;52.530;13.188;2024-01-30T00:45:52;102520.50;;;2.89;64.86
41106;BME280;74159;52.530;13.188;2024-01-30T00:48:18;102521.84;;;2.70;65.57
41106;BME280;74159;52.530;13.188;2024-01-30T00:50:43;102506.91;;;2.81;65.39
41106;BME280;74159;52.530;13.188;2024-01-30T00:53:09;102511.03;;;2.77;65.56
41106;BME280;74159;52.530;13.188;2024-01-30T00:55:35;102514.13;;;2.74;66.35
41106;BME280;74159;52.530;13.188;2024-01-30T00:58:00;102520.25;;;2.76;65.87
41106;BME280;74159;52.530;13.188;2024-01-30T01:00:26;102525.13;;;2.88;65.14
41106;BME280;74159;52.530;13.188;2024-01-30T01:02:55;102514.44;;;2.79;66.24
41106;BME280;74159;52.530;13.188;2024-01-30T01:05:20;102519.88;;;2.79;65.89
41106;BME280;74159;52.530;13.188;2024-01-30T01:07:45;102516.72;;;2.67;66.22
41106;BME280;74159;52.530;13.188;2024-01-30T01:10:12;102518.50;;;2.83;65.79
41106;BME280;74159;52.530;13.188;2024-01-30T01:12:39;102516.09;;;2.88;65.91
41106;BME280;74159;52.530;13.188;2024-01-30T01:15:05;102528.91;;;2.87;65.97
41106;BME280;74159;52.530;13.188;2024-01-30T01:17:30;102525.53;;;2.77;66.42
41106;BME280;74159;52.530;13.188;2024-01-30T01:19:57;102530.72;;;2.64;66.72
41106;BME280;74159;52.530;13.188;2024-01-30T01:22:22;102527.88;;;2.57;66.85
41106;BME280;74159;52.530;13.188;2024-01-30T01:24:48;102529.59;;;2.58;66.95
41106;BME280;74159;52.530;13.188;2024-01-30T01:27:13;102515.94;;;2.50;67.16
41106;BME280;74159;52.530;13.188;2024-01-30T01:29:39;102515.91;;;2.58;67.55
41106;BME280;74159;52.530;13.188;2024-01-30T01:32:04;102521.75;;;2.55;67.24
41106;BME280;74159;52.530;13.188;2024-01-30T01:34:29;102524.16;;;2.50;67.16
41106;BME280;74159;52.530;13.188;2024-01-30T01:36:55;102528.53;;;2.59;67.37
41106;BME280;74159;52.530;13.188;2024-01-30T01:39:21;102525.28;;;2.64;67.03
41106;BME280;74159;52.530;13.188;2024-01-30T01:41:48;102521.78;;;2.47;67.69
41106;BME280;74159;52.530;13.188;2024-01-30T01:44:13;102511.53;;;2.49;67.54
41106;BME280;74159;52.530;13.188;2024-01-30T01:46:39;102515.81;;;2.44;67.63
41106;BME280;74159;52.530;13.188;2024-01-30T01:49:05;102508.38;;;2.37;67.72
41106;BME280;74159;52.530;13.188;2024-01-30T01:51:33;102517.59;;;2.36;67.57
41106;BME280;74159;52.530;13.188;2024-01-30T01:54:03;102512.91;;;2.45;67.99
41106;BME280;74159;52.530;13.188;2024-01-30T01:56:29;102509.50;;;2.43;67.73
41106;BME280;74159;52.530;13.188;2024-01-30T01:58:55;102512.28;;;2.35;68.03
41106;BME280;74159;52.530;13.188;2024-01-30T02:01:21;102510.84;;;2.47;67.86
41106;BME280;74159;52.530;13.188;2024-01-30T02:03:47;102513.69;;;2.62;67.50
41106;BME280;74159;52.530;13.188;2024-01-30T02:06:16;102517.63;;;2.59;67.20
41106;BME280;74159;52.530;13.188;2024-01-30T02:08:41;102530.81;;;2.79;66.40
41106;BME280;74159;52.530;13.188;2024-01-30T02:11:07;102514.19;;;2.88;66.29
41106;BME280;74159;52.530;13.188;2024-01-30T02:13:32;102513.91;;;2.52;67.00
41106;BME280;74159;52.530;13.188;2024-01-30T02:15:58;102519.38;;;2.52;66.90
41106;BME280;74159;52.530;13.188;2024-01-30T02:18:23;102514.66;;;2.38;67.41
41106;BME280;74159;52.530;13.188;2024-01-30T02:20:49;102517.22;;;2.70;66.57
41106;BME280;74159;52.530;13.188;2024-01-30T02:23:16;102520.81;;;2.40;67.55
41106;BME280;74159;52.530;13.188;2024-01-30T02:25:42;102526.66;;;2.29;67.67
41106;BME280;74159;52.530;13.188;2024-01-30T02:28:14;102522.44;;;2.49;67.29
41106;BME280;74159;52.530;13.188;2024-01-30T02:30:40;102522.22;;;2.28;67.48
41106;BME280;74159;52.530;13.188;2024-01-30T02:33:06;102530.53;;;2.34;67.33
41106;BME280;74159;52.530;13.188;2024-01-30T02:35:31;102529.38;;;2.29;67.60
41106;BME280;74159;52.530;13.188;2024-01-30T02:37:57;102523.56;;;2.32;67.58
41106;BME280;74159;52.530;13.188;2024-01-30T02:40:22;102527.97;;;2.33;67.53
41106;BME280;74159;52.530;13.188;2024-01-30T02:42:47;102517.06;;;2.33;67.07
41106;BME280;74159;52.530;13.188;2024-01-30T02:45:13;102511.84;;;2.54;66.99
41106;BME280;74159;52.530;13.188;2024-01-30T02:47:39;102510.94;;;2.62;66.50
41106;BME280;74159;52.530;13.188;2024-01-30T02:50:05;102511.88;;;2.46;66.53
41106;BME280;74159;52.530;13.188;2024-01-30T02:52:30;102514.00;;;2.36;67.56
41106;BME280;74159;52.530;13.188;2024-01-30T02:54:55;102507.16;;;2.40;67.47
41106;BME280;74159;52.530;13.188;2024-01-30T02:57:21;102505.84;;;2.28;67.61
41106;BME280;74159;52.530;13.188;2024-01-30T02:59:46;102510.63;;;2.18;67.71
41106;BME280;74159;52.530;13.188;2024-01-30T03:02:11;102507.75;;;2.19;68.15
41106;BME280;74159;52.530;13.188;2024-01-30T03:04:37;102506.78;;;2.04;68.62
41106;BME280;74159;52.530;13.188;2024-01-30T03:07:02;102495.63;;;2.22;67.95
41106;BME280;74159;52.530;13.188;2024-01-30T03:09:28;102500.09;;;2.15;68.62
41106;BME280;74159;52.530;13.188;2024-01-30T03:11:54;102496.78;;;2.35;68.20
41106;BME280;74159;52.530;13.188;2024-01-30T03:14:19;102498.53;;;2.20;68.39
41106;BME280;74159;52.530;13.188;2024-01-30T03:16:44;102490.25;;;2.05;68.94
41106;BME280;74159;52.530;13.188;2024-01-30T03:19:10;102496.75;;;1.96;69.60
41106;BME280;74159;52.530;13.188;2024-01-30T03:21:35;102493.16;;;2.04;69.54
41106;BME280;74159;52.530;13.188;2024-01-30T03:24:01;102486.31;;;2.00;69.41
41106;BME280;74159;52.530;13.188;2024-01-30T03:26:26;102495.41;;;1.92;69.87
41106;BME280;74159;52.530;13.188;2024-01-30T03:28:51;102487.53;;;1.97;69.59
41106;BME280;74159;52.530;13.188;2024-01-30T03:31:17;102481.56;;;2.02;69.80
41106;BME280;74159;52.530;13.188;2024-01-30T03:33:42;102482.66;;;2.24;69.05
41106;BME280;74159;52.530;13.188;2024-01-30T03:36:08;102481.69;;;2.08;69.44
41106;BME280;74159;52.530;13.188;2024-01-30T03:38:34;102484.81;;;2.36;68.67
41106;BME280;74159;52.530;13.188;2024-01-30T03:40:59;102481.31;;;2.20;69.30
41106;BME280;74159;52.530;13.188;2024-01-30T03:43:25;102486.31;;;2.08;69.62
41106;BME280;74159;52.530;13.188;2024-01-30T03:45:51;102482.38;;;2.10;69.55
41106;BME280;74159;52.530;13.188;2024-01-30T03:48:16;102476.75;;;2.43;68.61
41106;BME280;74159;52.530;13.188;2024-01-30T03:50:41;102482.47;;;2.56;68.17
41106;BME280;74159;52.530;13.188;2024-01-30T03:53:07;102481.06;;;2.37;68.70
41106;BME280;74159;52.530;13.188;2024-01-30T03:55:32;102483.09;;;2.04;70.10
41106;BME280;74159;52.530;13.188;2024-01-30T03:57:57;102480.31;;;2.13;69.69
41106;BME280;74159;52.530;13.188;2024-01-30T04:00:23;102485.84;;;1.96;70.57
41106;BME280;74159;52.530;13.188;2024-01-30T04:02:48;102481.31;;;2.20;69.51
41106;BME280;74159;52.530;13.188;2024-01-30T04:05:16;102480.31;;;2.13;69.68
41106;BME280;74159;52.530;13.188;2024-01-30T04:07:41;102487.50;;;2.05;70.23
41106;BME280;74159;52.530;13.188;2024-01-30T04:10:07;102486.84;;;2.03;70.43
41106;BME280;74159;52.530;13.188;2024-01-30T04:12:32;102490.19;;;2.22;70.13
41106;BME280;74159;52.530;13.188;2024-01-30T04:14:58;102493.78;;;2.14;70.34
41106;BME280;74159;52.530;13.188;2024-01-30T04:17:23;102486.13;;;2.09;70.15
41106;BME280;74159;52.530;13.188;2024-01-30T04:19:49;102485.69;;;2.29;69.69
41106;BME280;74159;52.530;13.188;2024-01-30T04:22:14;102480.47;;;2.19;69.82
41106;BME280;74159;52.530;13.188;2024-01-30T04:24:39;102480.47;;;2.19;69.82
41106;BME280;74159;52.530;13.188;2024-01-30T04:27:05;102478.97;;;2.00;71.13
41106;BME280;74159;52.530;13.188;2024-01-30T04:29:30;102483.31;;;1.87;70.93
41106;BME280;74159;52.530;13.188;2024-01-30T04:31:57;102489.63;;;1.87;70.98
41106;BME280;74159;52.530;13.188;2024-01-30T04:34:22;102481.72;;;2.00;71.13
41106;BME280;74159;52.530;13.188;2024-01-30T04:36:48;102480.19;;;2.06;70.74
41106;BME280;74159;52.530;13.188;2024-01-30T04:39:13;102476.25;;;2.00;70.78
41106;BME280;74159;52.530;13.188;2024-01-30T04:41:38;102480.38;;;1.96;71.15
41106;BME280;74159;52.530;13.188;2024-01-30T04:44:04;102473.94;;;1.89;71.06
41106;BME280;74159;52.530;13.188;2024-01-30T04:46:30;102475.75;;;2.05;70.99
41106;BME280;74159;52.530;13.188;2024-01-30T04:48:55;102476.56;;;2.14;70.15
41106;BME280;74159;52.530;13.188;2024-01-30T04:51:20;102475.63;;;1.90;70.63
41106;BME280;74159;52.530;13.188;2024-01-30T04:53:46;102481.59;;;1.94;70.96
41106;BME280;74159;52.530;13.188;2024-01-30T04:56:11;102479.88;;;1.93;71.16
41106;BME280;74159;52.530;13.188;2024-01-30T04:58:37;102475.28;;;1.93;70.61
41106;BME280;74159;52.530;13.188;2024-01-30T05:01:02;102485.16;;;1.94;70.74
41106;BME280;74159;52.530;13.188;2024-01-30T05:03:28;102477.88;;;1.78;71.15
41106;BME280;74159;52.530;13.188;2024-01-30T05:05:53;102466.78;;;1.88;71.14
41106;BME280;74159;52.530;13.188;2024-01-30T05:08:18;102472.41;;;1.78;71.40
41106;BME280;74159;52.530;13.188;2024-01-30T05:10:44;102469.53;;;1.80;71.12
41106;BME280;74159;52.530;13.188;2024-01-30T05:13:09;102484.19;;;1.79;71.44
41106;BME280;74159;52.530;13.188;2024-01-30T05:15:35;102471.88;;;1.83;71.44
41106;BME280;74159;52.530;13.188;2024-01-30T05:18:00;102462.97;;;2.05;70.60
41106;BME280;74159;52.530;13.188;2024-01-30T05:20:25;102480.78;;;1.77;71.29
41106;BME280;74159;52.530;13.188;2024-01-30T05:22:53;102471.56;;;1.78;71.48
41106;BME280;74159;52.530;13.188;2024-01-30T05:25:18;102468.84;;;1.86;71.10
41106;BME280;74159;52.530;13.188;2024-01-30T05:27:44;102459.94;;;1.84;70.87
41106;BME280;74159;52.530;13.188;2024-01-30T05:30:10;102471.22;;;1.81;70.90
41106;BME280;74159;52.530;13.188;2024-01-30T05:32:35;102479.94;;;1.76;71.07
41106;BME280;74159;52.530;13.188;2024-01-30T05:35:01;102464.06;;;1.80;71.24
41106;BME280;74159;52.530;13.188;2024-01-30T05:37:27;102467.44;;;1.90;70.57
41106;BME280;74159;52.530;13.188;2024-01-30T05:39:52;102471.56;;;1.86;70.86
41106;BME280;74159;52.530;13.188;2024-01-30T05:42:17;102468.00;;;1.86;70.39
41106;BME280;74159;52.530;13.188;2024-01-30T05:44:43;102462.31;;;1.95;70.54
41106;BME280;74159;52.530;13.188;2024-01-30T05:47:08;102466.78;;;1.88;70.90
41106;BME280;74159;52.530;13.188;2024-01-30T05:49:33;102457.94;;;1.86;70.59
41106;BME280;74159;52.530;13.188;2024-01-30T05:51:59;102467.69;;;2.11;69.77
41106;BME280;74159;52.530;13.188;2024-01-30T05:54:25;102465.09;;;1.87;70.12
41106;BME280;74159;52.530;13.188;2024-01-30T05:56:50;102464.78;;;2.13;69.91
41106;BME280;74159;52.530;13.188;2024-01-30T05:59:16;102454.16;;;2.18;69.32
41106;BME280;74159;52.530;13.188;2024-01-30T06:01:48;102447.06;;;2.09;69.21
41106;BME280;74159;52.530;13.188;2024-01-30T06:04:14;102457.81;;;2.10;69.35
41106;BME280;74159;52.530;13.188;2024-01-30T06:06:40;102460.25;;;1.97;70.23
41106;BME280;74159;52.530;13.188;2024-01-30T06:09:05;102451.03;;;1.98;69.91
41106;BME280;74159;52.530;13.188;2024-01-30T06:11:31;102449.63;;;2.10;69.49
41106;BME280;74159;52.530;13.188;2024-01-30T06:13:56;102440.66;;;1.94;70.35
41106;BME280;74159;52.530;13.188;2024-01-30T06:16:21;102448.00;;;1.93;70.56
41106;BME280;74159;52.530;13.188;2024-01-30T06:18:48;102447.94;;;2.01;69.99
41106;BME280;74159;52.530;13.188;2024-01-30T06:21:13;102449.50;;;1.96;69.95
41106;BME280;74159;52.530;13.188;2024-01-30T06:23:39;102459.56;;;1.95;69.87
41106;BME280;74159;52.530;13.188;2024-01-30T06:26:06;102453.81;;;1.90;69.95
41106;BME280;74159;52.530;13.188;2024-01-30T06:28:34;102460.47;;;1.88;70.14
41106;BME280;74159;52.530;13.188;2024-01-30T06:31:01;102448.47;;;1.97;69.86
41106;BME280;74159;52.530;13.188;2024-01-30T06:33:26;102451.38;;;1.95;70.02
41106;BME280;74159;52.530;13.188;2024-01-30T06:35:51;102454.50;;;1.84;70.71
41106;BME280;74159;52.530;13.188;2024-01-30T06:38:17;102455.88;;;1.88;70.32
41106;BME280;74159;52.530;13.188;2024-01-30T06:40:42;102451.69;;;2.08;69.82
41106;BME280;74159;52.530;13.188;2024-01-30T06:43:08;102447.50;;;1.90;70.30
41106;BME280;74159;52.530;13.188;2024-01-30T06:45:33;102438.41;;;1.97;70.34
41106;BME280;74159;52.530;13.188;2024-01-30T06:48:00;102449.03;;;1.84;70.77
41106;BME280;74159;52.530;13.188;2024-01-30T06:50:25;102442.22;;;1.88;70.70
41106;BME280;74159;52.530;13.188;2024-01-30T06:52:51;102443.25;;;1.87;70.39
41106;BME280;74159;52.530;13.188;2024-01-30T06:55:16;102445.25;;;1.93;70.62
41106;BME280;74159;52.530;13.188;2024-01-30T06:57:42;102441.81;;;1.99;70.55
41106;BME280;74159;52.530;13.188;2024-01-30T07:00:07;102441.81;;;1.99;70.53
41106;BME280;74159;52.530;13.188;2024-01-30T07:02:33;102450.72;;;1.93;70.78
41106;BME280;74159;52.530;13.188;2024-01-30T07:04:58;102446.59;;;2.05;69.97
41106;BME280;74159;52.530;13.188;2024-01-30T07:07:24;102448.59;;;2.11;69.84
41106;BME280;74159;52.530;13.188;2024-01-30T07:09:49;102446.53;;;2.14;69.65
41106;BME280;74159;52.530;13.188;2024-01-30T07:12:17;102444.13;;;2.19;69.77
41106;BME280;74159;52.530;13.188;2024-01-30T07:14:43;102439.63;;;1.95;70.28
41106;BME280;74159;52.530;13.188;2024-01-30T07:17:08;102452.06;;;1.97;70.26
41106;BME280;74159;52.530;13.188;2024-01-30T07:19:34;102444.47;;;2.16;70.40
41106;BME280;74159;52.530;13.188;2024-01-30T07:22:00;102445.38;;;2.08;69.88
41106;BME280;74159;52.530;13.188;2024-01-30T07:24:25;102440.41;;;2.11;69.95
41106;BME280;74159;52.530;13.188;2024-01-30T07:26:51;102443.91;;;2.28;69.45
41106;BME280;74159;52.530;13.188;2024-01-30T07:29:16;102432.88;;;2.14;70.08
41106;BME280;74159;52.530;13.188;2024-01-30T07:31:45;102438.97;;;2.24;69.94
41106;BME280;74159;52.530;13.188;2024-01-30T07:34:11;102433.03;;;2.20;69.62
41106;BME280;74159;52.530;13.188;2024-01-30T07:36:40;102428.44;;;2.21;69.70
41106;BME280;74159;52.530;13.188;2024-01-30T07:39:05;102440.59;;;2.41;69.45
41106;BME280;74159;52.530;13.188;2024-01-30T07:41:31;102436.34;;;2.38;69.03
41106;BME280;74159;52.530;13.188;2024-01-30T07:43:56;102439.59;;;2.34;69.19
41106;BME280;74159;52.530;13.188;2024-01-30T07:46:22;102435.25;;;2.48;68.48
41106;BME280;74159;52.530;13.188;2024-01-30T07:48:47;102438.41;;;2.36;68.62
41106;BME280;74159;52.530;13.188;2024-01-30T07:51:12;102429.28;;;2.44;68.78
41106;BME280;74159;52.530;13.188;2024-01-30T07:53:38;102435.13;;;2.41;68.96
41106;BME280;74159;52.530;13.188;2024-01-30T07:56:03;102438.72;;;2.64;68.08
41106;BME280;74159;52.530;13.188;2024-01-30T07:58:29;102442.72;;;2.54;67.88
41106;BME280;74159;52.530;13.188;2024-01-30T08:00:54;102436.56;;;2.52;67.91
41106;BME280;74159;52.530;13.188;2024-01-30T08:03:22;102440.22;;;2.44;68.38
41106;BME280;74159;52.530;13.188;2024-01-30T08:05:47;102439.47;;;2.50;68.40
41106;BME280;74159;52.530;13.188;2024-01-30T08:08:12;102443.91;;;2.51;67.92
41106;BME280;74159;52.530;13.188;2024-01-30T08:10:38;102437.75;;;2.57;67.24
41106;BME280;74159;52.530;13.188;2024-01-30T08:13:03;102442.03;;;2.52;67.79
41106;BME280;74159;52.530;13.188;2024-01-30T08:15:28;102449.63;;;2.64;67.25
41106;BME280;74159;52.530;13.188;2024-01-30T08:17:54;102450.13;;;2.68;67.39
41106;BME280;74159;52.530;13.188;2024-01-30T08:20:23;102452.00;;;2.67;66.89
41106;BME280;74159;52.530;13.188;2024-01-30T08:22:49;102445.34;;;2.70;67.09
41106;BME280;74159;52.530;13.188;2024-01-30T08:25:14;102438.16;;;2.92;66.24
41106;BME280;74159;52.530;13.188;2024-01-30T08:27:40;102438.59;;;2.81;66.55
41106;BME280;74159;52.530;13.188;2024-01-30T08:30:08;102434.91;;;2.74;67.20
41106;BME280;74159;52.530;13.188;2024-01-30T08:32:34;102423.38;;;2.86;66.96
41106;BME280;74159;52.530;13.188;2024-01-30T08:34:59;102430.25;;;2.97;66.20
41106;BME280;74159;52.530;13.188;2024-01-30T08:37:28;102429.22;;;2.98;66.71
41106;BME280;74159;52.530;13.188;2024-01-30T08:39:54;102428.50;;;3.04;66.72
41106;BME280;74159;52.530;13.188;2024-01-30T08:42:19;102428.50;;;3.19;66.00
41106;BME280;74159;52.530;13.188;2024-01-30T08:44:48;102428.44;;;3.27;66.33
41106;BME280;74159;52.530;13.188;2024-01-30T08:47:14;102428.38;;;3.50;65.47
41106;BME280;74159;52.530;13.188;2024-01-30T08:49:41;102431.00;;;3.28;65.62
41106;BME280;74159;52.530;13.188;2024-01-30T08:52:08;102420.94;;;3.44;65.12
41106;BME280;74159;52.530;13.188;2024-01-30T08:54:33;102429.03;;;3.52;64.24
41106;BME280;74159;52.530;13.188;2024-01-30T08:57:00;102429.03;;;3.52;64.18
41106;BME280;74159;52.530;13.188;2024-01-30T08:59:25;102426.28;;;3.52;64.72
41106;BME280;74159;52.530;13.188;2024-01-30T09:01:51;102423.56;;;3.52;64.03
41106;BME280;74159;52.530;13.188;2024-01-30T09:04:19;102421.00;;;3.95;63.29
41106;BME280;74159;52.530;13.188;2024-01-30T09:06:45;102421.78;;;3.59;64.17
41106;BME280;74159;52.530;13.188;2024-01-30T09:09:10;102410.53;;;3.83;63.11
41106;BME280;74159;52.530;13.188;2024-01-30T09:11:35;102416.31;;;3.59;64.20
41106;BME280;74159;52.530;13.188;2024-01-30T09:14:01;102426.41;;;3.73;63.38
41106;BME280;74159;52.530;13.188;2024-01-30T09:16:26;102422.63;;;3.74;63.79
41106;BME280;74159;52.530;13.188;2024-01-30T09:18:52;102420.63;;;3.68;63.29
41106;BME280;74159;52.530;13.188;2024-01-30T09:21:17;102413.38;;;3.75;63.36
41106;BME280;74159;52.530;13.188;2024-01-30T09:23:42;102415.47;;;3.73;63.55
41106;BME280;74159;52.530;13.188;2024-01-30T09:26:08;102422.25;;;3.77;63.61
41106;BME280;74159;52.530;13.188;2024-01-30T09:28:33;102423.00;;;3.86;63.50
41106;BME280;74159;52.530;13.188;2024-01-30T09:30:59;102413.66;;;3.95;62.75
41106;BME280;74159;52.530;13.188;2024-01-30T09:33:24;102414.09;;;3.99;62.49
41106;BME280;74159;52.530;13.188;2024-01-30T09:35:49;102414.94;;;4.14;62.90
41106;BME280;74159;52.530;13.188;2024-01-30T09:38:16;102422.22;;;4.07;62.85
41106;BME280;74159;52.530;13.188;2024-01-30T09:40:41;102417.94;;;4.19;62.08
41106;BME280;74159;52.530;13.188;2024-01-30T09:43:07;102415.88;;;4.21;61.55
41106;BME280;74159;52.530;13.188;2024-01-30T09:45:33;102415.28;;;4.26;61.91
41106;BME280;74159;52.530;13.188;2024-01-30T09:48:00;102420.94;;;4.39;61.46
41106;BME280;74159;52.530;13.188;2024-01-30T09:50:26;102412.53;;;4.40;61.57
41106;BME280;74159;52.530;13.188;2024-01-30T09:52:55;102412.63;;;4.32;61.77
41106;BME280;74159;52.530;13.188;2024-01-30T09:55:21;102410.88;;;4.46;61.19
41106;BME280;74159;52.530;13.188;2024-01-30T09:57:47;102414.13;;;4.35;60.63
41106;BME280;74159;52.530;13.188;2024-01-30T10:00:13;102415.56;;;4.52;60.45
41106;BME280;74159;52.530;13.188;2024-01-30T10:02:38;102403.25;;;4.41;61.09
41106;BME280;74159;52.530;13.188;2024-01-30T10:05:04;102400.13;;;4.66;60.20
41106;BME280;74159;52.530;13.188;2024-01-30T10:07:31;102400.72;;;4.61;60.51
41106;BME280;74159;52.530;13.188;2024-01-30T10:09:56;102396.72;;;4.64;60.07
41106;BME280;74159;52.530;13.188;2024-01-30T10:12:22;102400.00;;;4.74;59.50
41106;BME280;74159;52.530;13.188;2024-01-30T10:14:47;102397.75;;;4.84;58.85
41106;BME280;74159;52.530;13.188;2024-01-30T10:17:13;102397.09;;;5.03;59.28
41106;BME280;74159;52.530;13.188;2024-01-30T10:19:39;102394.75;;;5.00;58.41
41106;BME280;74159;52.530;13.188;2024-01-30T10:22:05;102399.44;;;5.06;58.31
41106;BME280;74159;52.530;13.188;2024-01-30T10:24:32;102386.50;;;5.56;57.25
41106;BME280;74159;52.530;13.188;2024-01-30T10:26:58;102381.72;;;6.06;55.28
41106;BME280;74159;52.530;13.188;2024-01-30T10:29:25;102393.28;;;5.60;55.81
41106;BME280;74159;52.530;13.188;2024-01-30T10:32:03;102395.28;;;5.45;56.74
41106;BME280;74159;52.530;13.188;2024-01-30T10:34:29;102390.69;;;5.52;55.93
41106;BME280;74159;52.530;13.188;2024-01-30T10:37:08;102383.44;;;5.72;55.41
41106;BME280;74159;52.530;13.188;2024-01-30T10:39:40;102383.34;;;5.94;55.21
41106;BME280;74159;52.530;13.188;2024-01-30T10:42:06;102387.38;;;6.04;55.10
41106;BME280;74159;52.530;13.188;2024-01-30T10:47:35;102382.00;;;6.38;54.36
41106;BME280;74159;52.530;13.188;2024-01-30T10:50:02;102376.31;;;6.46;54.00
41106;BME280;74159;52.530;13.188;2024-01-30T10:52:28;102378.44;;;6.44;53.75
41106;BME280;74159;52.530;13.188;2024-01-30T10:54:55;102369.16;;;7.31;51.55
41106;BME280;74159;52.530;13.188;2024-01-30T10:57:25;102371.91;;;6.58;52.82
41106;BME280;74159;52.530;13.188;2024-01-30T10:59:56;102362.56;;;7.45;50.97
41106;BME280;74159;52.530;13.188;2024-01-30T11:02:23;102384.84;;;7.17;51.35
41106;BME280;74159;52.530;13.188;2024-01-30T11:04:49;102375.31;;;7.39;51.55
41106;BME280;74159;52.530;13.188;2024-01-30T11:07:18;102380.72;;;7.66;50.09
41106;BME280;74159;52.530;13.188;2024-01-30T11:09:53;102372.66;;;7.71;49.67
41106;BME280;74159;52.530;13.188;2024-01-30T11:12:23;102360.03;;;8.08;49.97
41106;BME280;74159;52.530;13.188;2024-01-30T11:14:50;102363.22;;;7.34;50.25
41106;BME280;74159;52.530;13.188;2024-01-30T11:17:15;102367.84;;;7.60;50.85
41106;BME280;74159;52.530;13.188;2024-01-30T11:19:41;102370.38;;;7.54;50.31
41106;BME280;74159;52.530;13.188;2024-01-30T11:22:07;102357.00;;;7.65;50.85
41106;BME280;74159;52.530;13.188;2024-01-30T11:24:42;102368.72;;;8.05;49.55
41106;BME280;74159;52.530;13.188;2024-01-30T11:27:10;102362.91;;;7.75;51.13
41106;BME280;74159;52.530;13.188;2024-01-30T11:29:36;102360.31;;;6.96;51.73
41106;BME280;74159;52.530;13.188;2024-01-30T11:32:02;102365.19;;;7.07;51.49
41106;BME280;74159;52.530;13.188;2024-01-30T11:34:27;102368.56;;;7.09;52.63
41106;BME280;74159;52.530;13.188;2024-01-30T11:36:58;102364.50;;;6.72;53.17
41106;BME280;74159;52.530;13.188;2024-01-30T11:39:28;102365.16;;;6.60;53.80
41106;BME280;74159;52.530;13.188;2024-01-30T11:41:54;102359.00;;;6.72;53.84
41106;BME280;74159;52.530;13.188;2024-01-30T11:44:20;102353.31;;;7.13;52.21
41106;BME280;74159;52.530;13.188;2024-01-30T11:46:50;102359.41;;;7.41;51.88
41106;BME280;74159;52.530;13.188;2024-01-30T11:49:17;102357.53;;;7.02;51.99
41106;BME280;74159;52.530;13.188;2024-01-30T11:51:48;102363.63;;;7.37;52.26
41106;BME280;74159;52.530;13.188;2024-01-30T11:54:15;102354.34;;;7.32;51.39
41106;BME280;74159;52.530;13.188;2024-01-30T11:56:42;102354.75;;;7.35;51.64
41106;BME280;74159;52.530;13.188;2024-01-30T11:59:07;102348.84;;;7.18;51.63
41106;BME280;74159;52.530;13.188;2024-01-30T12:01:33;102339.53;;;7.19;51.88
41106;BME280;74159;52.530;13.188;2024-01-30T12:03:59;102339.97;;;7.03;52.63
41106;BME280;74159;52.530;13.188;2024-01-30T12:06:24;102337.25;;;7.81;51.11
41106;BME280;74159;52.530;13.188;2024-01-30T12:09:00;102325.63;;;8.17;50.33
41106;BME280;74159;52.530;13.188;2024-01-30T12:11:29;102325.47;;;7.61;51.45
41106;BME280;74159;52.530;13.188;2024-01-30T12:13:55;102318.91;;;8.06;50.92
41106;BME280;74159;52.530;13.188;2024-01-30T12:16:21;102324.00;;;7.58;52.01
41106;BME280;74159;52.530;13.188;2024-01-30T12:18:47;102321.22;;;8.09;50.01
41106;BME280;74159;52.530;13.188;2024-01-30T12:21:16;102324.09;;;7.90;50.72
41106;BME280;74159;52.530;13.188;2024-01-30T12:23:41;102313.09;;;8.21;49.90
41106;BME280;74159;52.530;13.188;2024-01-30T12:26:07;102303.44;;;7.61;51.18
41106;BME280;74159;52.530;13.188;2024-01-30T12:28:35;102307.88;;;7.62;51.25
41106;BME280;74159;52.530;13.188;2024-01-30T12:31:04;102299.34;;;7.12;52.01
41106;BME280;74159;52.530;13.188;2024-01-30T12:33:30;102292.22;;;7.55;52.02
41106;BME280;74159;52.530;13.188;2024-01-30T12:35:56;102288.31;;;7.18;52.56
41106;BME280;74159;52.530;13.188;2024-01-30T12:38:22;102288.56;;;7.68;51.88
41106;BME280;74159;52.530;13.188;2024-01-30T12:40:48;102288.47;;;7.95;50.91
41106;BME280;74159;52.530;13.188;2024-01-30T12:43:14;102282.91;;;8.01;51.38
41106;BME280;74159;52.530;13.188;2024-01-30T12:45:41;102276.88;;;8.49;49.74
41106;BME280;74159;52.530;13.188;2024-01-30T12:48:06;102276.78;;;8.31;50.39